Time;durP1;ratioP1;P1;durP2;ratioP2;P2;SDS_P1;SDS_P2;PMS_P1;PMS_P2;Temp;Humidity;BMP_temperature;BMP_pressure;BME280_temperature;BME280_humidity;BME280_pressure;Samples;Min_cycle;Max_cycle;Signal;HPM_P1;HPM_P2
2023/11/16 00:00:19;;;;;;;8.90;3.70;;;7.70;75.60;;;;;;4788113;30;20101;-90
2023/11/16 00:02:49;;;;;;;9.27;4.07;;;7.80;75.80;;;;;;4787490;30;20075;-90
2023/11/16 00:05:16;;;;;;;12.15;3.85;;;7.80;75.70;;;;;;4788136;30;20089;-91
2023/11/16 00:07:48;;;;;;;13.30;4.07;;;7.80;75.90;;;;;;4787891;30;20078;-91
2023/11/16 00:10:16;;;;;;;10.68;3.60;;;7.90;76.00;;;;;;4788105;30;20051;-90
2023/11/16 00:12:43;;;;;;;8.03;3.57;;;7.90;76.10;;;;;;4788137;30;20067;-90
2023/11/16 00:15:11;;;;;;;8.95;4.00;;;7.90;76.10;;;;;;4774095;30;20047;-91
2023/11/16 00:17:42;;;;;;;7.93;2.70;;;8.00;76.00;;;;;;4791060;30;20433;-90
2023/11/16 00:20:10;;;;;;;8.07;2.97;;;8.00;75.00;;;;;;4791200;30;20051;-91
2023/11/16 00:22:38;;;;;;;6.95;3.13;;;8.00;74.50;;;;;;4791020;30;20053;-91
2023/11/16 00:25:06;;;;;;;8.53;2.90;;;8.00;74.70;;;;;;4791275;30;20453;-91
2023/11/16 00:27:34;;;;;;;8.27;3.08;;;8.00;75.60;;;;;;4791437;30;20055;-91
2023/11/16 00:30:04;;;;;;;7.30;2.67;;;8.10;76.10;;;;;;4791065;30;20047;-92
2023/11/16 00:32:32;;;;;;;7.80;3.28;;;8.10;76.20;;;;;;4776370;30;20082;-92
2023/11/16 00:35:00;;;;;;;8.63;3.45;;;8.10;76.40;;;;;;4790591;30;20058;-91
2023/11/16 00:37:27;;;;;;;8.40;2.90;;;8.00;76.90;;;;;;4790771;30;20051;-91
2023/11/16 00:39:57;;;;;;;8.00;3.00;;;8.00;76.70;;;;;;4791397;30;20052;-91
2023/11/16 00:42:28;;;;;;;9.57;3.15;;;8.00;77.10;;;;;;4791033;30;20052;-91
2023/11/16 00:44:56;;;;;;;8.05;3.10;;;8.00;76.80;;;;;;4790434;30;20062;-91
2023/11/16 00:47:24;;;;;;;11.05;3.83;;;8.00;76.90;;;;;;4790840;30;20074;-91
2023/11/16 00:49:51;;;;;;;11.30;3.27;;;8.00;77.50;;;;;;4775814;30;20067;-91
2023/11/16 00:52:21;;;;;;;9.07;3.42;;;8.00;77.80;;;;;;4790553;30;20051;-92
2023/11/16 00:54:52;;;;;;;10.00;4.20;;;8.00;77.90;;;;;;4790417;30;20147;-92
2023/11/16 00:57:20;;;;;;;9.50;3.65;;;8.00;78.00;;;;;;4791046;30;20428;-92
2023/11/16 00:59:47;;;;;;;9.68;3.80;;;8.00;77.80;;;;;;4775798;30;20142;-92
2023/11/16 01:02:17;;;;;;;8.90;3.57;;;8.00;77.70;;;;;;4790400;30;20058;-92
2023/11/16 01:04:45;;;;;;;8.52;3.67;;;8.10;77.70;;;;;;4790961;30;20503;-92
2023/11/16 01:07:12;;;;;;;11.77;3.90;;;8.20;77.80;;;;;;4790322;30;20472;-91
2023/11/16 01:09:39;;;;;;;8.90;3.67;;;8.10;77.90;;;;;;4775723;30;20128;-92
2023/11/16 01:12:15;;;;;;;9.88;3.83;;;8.20;77.90;;;;;;4790466;30;20051;-92
2023/11/16 01:14:44;;;;;;;8.87;3.67;;;8.20;78.10;;;;;;4790347;30;20055;-91
2023/11/16 01:17:18;;;;;;;10.70;4.43;;;8.10;78.10;;;;;;4790294;30;20055;-91
2023/11/16 01:19:46;;;;;;;13.70;4.80;;;8.20;77.90;;;;;;4775620;30;20165;-91
2023/11/16 01:22:15;;;;;;;11.90;4.35;;;8.20;77.90;;;;;;4790154;30;20082;-91
2023/11/16 01:24:46;;;;;;;13.35;4.68;;;8.10;77.80;;;;;;4775170;30;20138;-91
2023/11/16 01:27:19;;;;;;;11.13;4.83;;;8.10;78.20;;;;;;4789063;29;20051;-92
2023/11/16 01:29:46;;;;;;;12.10;4.45;;;8.10;78.40;;;;;;4790006;30;20058;-91
2023/11/16 01:32:14;;;;;;;12.10;4.68;;;8.00;78.20;;;;;;4790205;30;20051;-91
2023/11/16 01:34:42;;;;;;;10.13;4.72;;;8.00;78.20;;;;;;4789902;30;20051;-91
2023/11/16 01:37:10;;;;;;;10.32;4.63;;;8.00;78.10;;;;;;4775459;30;20506;-91
2023/11/16 01:39:38;;;;;;;11.20;4.50;;;8.00;78.00;;;;;;4790422;30;20054;-91
2023/11/16 01:42:09;;;;;;;13.25;6.05;;;8.00;78.10;;;;;;4774857;30;20414;-91
2023/11/16 01:44:38;;;;;;;14.07;5.05;;;8.10;78.20;;;;;;4774933;30;20054;-92
2023/11/16 01:47:08;;;;;;;14.00;4.75;;;8.00;78.40;;;;;;4789660;30;20051;-92
2023/11/16 01:49:37;;;;;;;11.32;5.05;;;8.00;78.70;;;;;;4774932;30;20147;-91
2023/11/16 01:52:07;;;;;;;12.00;4.77;;;8.00;78.50;;;;;;4789614;30;20104;-91
2023/11/16 01:54:35;;;;;;;11.70;5.07;;;8.10;78.10;;;;;;4789484;30;20047;-91
2023/11/16 01:57:04;;;;;;;11.90;4.95;;;8.20;78.10;;;;;;4789572;30;20064;-91
2023/11/16 01:59:34;;;;;;;12.05;5.10;;;8.20;77.50;;;;;;4789548;30;20044;-91
2023/11/16 02:02:05;;;;;;;10.50;4.72;;;8.10;77.70;;;;;;4774497;30;20051;-91
2023/11/16 02:04:34;;;;;;;9.10;4.30;;;8.10;77.90;;;;;;4789471;30;20146;-92
2023/11/16 02:07:04;;;;;;;13.48;5.50;;;8.00;78.00;;;;;;4789587;30;20074;-91
2023/11/16 02:09:32;;;;;;;11.57;4.63;;;8.00;78.10;;;;;;4789199;30;20056;-92
2023/11/16 02:12:05;;;;;;;12.10;4.70;;;8.00;78.30;;;;;;4789070;30;20063;-91
2023/11/16 02:14:35;;;;;;;12.07;4.90;;;8.00;78.10;;;;;;4789078;30;20051;-91
2023/11/16 02:17:06;;;;;;;10.47;4.43;;;8.00;78.00;;;;;;4788698;30;20143;-91
2023/11/16 02:19:34;;;;;;;12.68;5.18;;;8.00;78.40;;;;;;4789072;30;20047;-91
2023/11/16 02:22:05;;;;;;;12.40;5.38;;;7.90;78.70;;;;;;4774086;30;20059;-91
2023/11/16 02:24:33;;;;;;;11.25;5.47;;;7.90;79.00;;;;;;4789074;30;20128;-90
2023/11/16 02:27:00;;;;;;;12.30;5.00;;;7.90;79.20;;;;;;4789040;30;20499;-91
2023/11/16 02:29:29;;;;;;;11.03;5.00;;;8.00;79.20;;;;;;4789499;30;20051;-91
2023/11/16 02:31:56;;;;;;;10.70;5.03;;;8.00;79.10;;;;;;4788826;29;20055;-91
2023/11/16 02:34:23;;;;;;;10.23;4.80;;;8.00;78.80;;;;;;4788977;30;20051;-91
2023/11/16 02:36:51;;;;;;;10.48;4.80;;;8.00;78.90;;;;;;4788805;30;20055;-91
2023/11/16 02:39:18;;;;;;;12.18;4.63;;;8.00;78.70;;;;;;4788970;29;20059;-91
2023/11/16 02:41:46;;;;;;;12.93;5.93;;;8.00;78.70;;;;;;4773875;30;20066;-91
2023/11/16 02:44:18;;;;;;;12.55;5.32;;;8.00;78.80;;;;;;4788685;30;20706;-91
2023/11/16 02:46:46;;;;;;;10.30;4.68;;;8.00;78.80;;;;;;4788708;30;20047;-91
2023/11/16 02:49:13;;;;;;;10.30;4.70;;;8.10;78.70;;;;;;4788699;30;20055;-92
2023/11/16 02:51:40;;;;;;;11.00;4.40;;;8.10;78.80;;;;;;4788949;30;20502;-91
2023/11/16 02:54:07;;;;;;;10.23;4.30;;;8.10;78.40;;;;;;4788814;30;20388;-92
2023/11/16 02:56:38;;;;;;;10.15;4.07;;;8.10;78.30;;;;;;4788347;30;20051;-92
2023/11/16 02:59:05;;;;;;;9.50;4.05;;;8.20;78.00;;;;;;4788369;30;20108;-91
2023/11/16 03:01:34;;;;;;;12.25;4.93;;;8.30;77.80;;;;;;4789026;30;20062;-92
2023/11/16 03:04:02;;;;;;;11.07;4.60;;;8.30;78.20;;;;;;4788348;30;20071;-92
2023/11/16 03:06:29;;;;;;;9.57;3.83;;;8.30;78.30;;;;;;4773979;30;20047;-92
2023/11/16 03:08:56;;;;;;;10.98;4.22;;;8.30;78.20;;;;;;4788930;30;20047;-92
2023/11/16 03:11:23;;;;;;;10.45;4.03;;;8.40;78.10;;;;;;4788515;30;20532;-92
2023/11/16 03:13:52;;;;;;;10.93;3.85;;;8.40;77.80;;;;;;4788574;30;20051;-92
2023/11/16 03:16:21;;;;;;;10.20;3.65;;;8.40;77.60;;;;;;4773642;30;20112;-93
2023/11/16 03:18:48;;;;;;;10.17;3.90;;;8.40;77.70;;;;;;4788318;30;20089;-93
2023/11/16 03:21:15;;;;;;;9.93;3.83;;;8.40;78.00;;;;;;4788616;30;20058;-93
2023/11/16 03:23:42;;;;;;;10.25;4.13;;;8.40;78.10;;;;;;4788129;30;20062;-93
2023/11/16 03:26:13;;;;;;;10.57;3.85;;;8.40;78.10;;;;;;4788608;30;20112;-92
2023/11/16 03:28:41;;;;;;;11.68;4.40;;;8.30;78.40;;;;;;4773599;30;20097;-91
2023/11/16 03:31:13;;;;;;;10.93;3.87;;;8.30;78.60;;;;;;4788415;30;20051;-91
2023/11/16 03:33:41;;;;;;;10.05;4.20;;;8.30;78.50;;;;;;4788246;30;20066;-91
2023/11/16 03:36:08;;;;;;;11.10;4.45;;;8.30;78.50;;;;;;4773411;30;20067;-92
2023/11/16 03:38:35;;;;;;;13.50;4.93;;;8.30;78.60;;;;;;4788341;30;20055;-91
2023/11/16 03:41:03;;;;;;;8.75;4.07;;;8.30;78.70;;;;;;4788343;30;20059;-91
2023/11/16 03:43:30;;;;;;;12.97;5.07;;;8.30;78.90;;;;;;4788889;30;20056;-91
2023/11/16 03:45:57;;;;;;;13.40;5.35;;;8.30;79.00;;;;;;4788008;30;20057;-91
2023/11/16 03:48:24;;;;;;;12.00;4.90;;;8.20;79.00;;;;;;4787907;30;20043;-91
2023/11/16 03:50:52;;;;;;;11.88;4.95;;;8.10;79.20;;;;;;4790345;29;20043;-90
2023/11/16 03:53:19;;;;;;;13.18;5.22;;;8.00;79.50;;;;;;4791677;30;20112;-91
2023/11/16 03:55:46;;;;;;;11.80;4.93;;;7.90;79.70;;;;;;4777170;30;20051;-91
2023/11/16 03:58:13;;;;;;;10.85;4.00;;;7.90;79.80;;;;;;4791443;30;20055;-91
2023/11/16 04:00:40;;;;;;;10.10;4.90;;;7.90;79.70;;;;;;4792105;29;20079;-91
2023/11/16 04:03:08;;;;;;;10.98;4.97;;;7.90;79.80;;;;;;4776794;30;20055;-92
2023/11/16 04:05:35;;;;;;;10.50;4.47;;;8.00;79.80;;;;;;4791410;30;20138;-92
2023/11/16 04:08:05;;;;;;;12.97;5.10;;;8.10;79.60;;;;;;4791417;30;20147;-91
2023/11/16 04:10:32;;;;;;;10.05;4.22;;;8.20;79.50;;;;;;4791596;30;20111;-91
2023/11/16 04:13:03;;;;;;;10.95;4.25;;;8.10;79.10;;;;;;4790964;30;20108;-92
2023/11/16 04:15:31;;;;;;;10.38;4.35;;;8.10;79.10;;;;;;4791436;30;20413;-91
2023/11/16 04:17:58;;;;;;;9.73;3.95;;;8.20;79.10;;;;;;4776658;30;20055;-92
2023/11/16 04:20:26;;;;;;;10.97;4.37;;;8.20;79.20;;;;;;4791469;30;20090;-92
2023/11/16 04:22:53;;;;;;;10.45;4.30;;;8.20;79.10;;;;;;4776456;30;20545;-92
2023/11/16 04:25:27;;;;;;;10.73;4.68;;;8.20;79.20;;;;;;4791228;30;20051;-94
2023/11/16 04:27:59;;;;;;;13.98;4.53;;;8.10;79.30;;;;;;4791530;30;20146;-94
2023/11/16 04:30:28;;;;;;;10.57;4.28;;;8.10;79.40;;;;;;4776655;30;20079;-95
2023/11/16 04:33:00;;;;;;;10.20;4.30;;;8.10;79.20;;;;;;4776107;30;20063;-94
2023/11/16 04:35:27;;;;;;;9.85;4.15;;;8.20;79.30;;;;;;4791279;30;20055;-94
2023/11/16 04:37:58;;;;;;;10.60;4.40;;;8.10;79.00;;;;;;4790386;30;20418;-94
2023/11/16 04:40:25;;;;;;;10.63;4.45;;;8.10;79.10;;;;;;4791307;30;20055;-93
2023/11/16 04:42:55;;;;;;;12.20;5.15;;;8.10;79.00;;;;;;4776212;30;20083;-94
2023/11/16 04:45:22;;;;;;;13.03;5.33;;;8.00;79.60;;;;;;4791241;30;20047;-94
2023/11/16 04:47:50;;;;;;;13.10;4.68;;;7.90;80.10;;;;;;4790741;30;20464;-94
2023/11/16 04:50:18;;;;;;;11.35;5.15;;;7.80;80.30;;;;;;4775921;30;20055;-93
2023/11/16 04:52:46;;;;;;;13.35;6.45;;;7.80;80.50;;;;;;4791302;29;20462;-92
2023/11/16 04:55:15;;;;;;;11.43;5.43;;;7.70;80.80;;;;;;4777728;29;20051;-93
2023/11/16 04:57:43;;;;;;;14.43;6.03;;;7.70;81.00;;;;;;4797352;29;20051;-92
2023/11/16 05:00:13;;;;;;;13.65;6.05;;;7.70;81.10;;;;;;4796973;29;20408;-93
2023/11/16 05:02:40;;;;;;;14.38;6.57;;;7.70;81.20;;;;;;4795544;29;20047;-93
2023/11/16 05:05:09;;;;;;;13.52;5.95;;;7.80;81.00;;;;;;4797018;29;20050;-94
2023/11/16 05:07:36;;;;;;;13.55;5.70;;;7.80;80.90;;;;;;4796953;29;20536;-93
2023/11/16 05:10:07;;;;;;;13.00;6.07;;;7.80;80.90;;;;;;4797026;29;20042;-94
2023/11/16 05:12:34;;;;;;;14.35;6.10;;;7.70;80.90;;;;;;4796954;29;20099;-95
2023/11/16 05:15:01;;;;;;;12.55;5.82;;;7.70;81.00;;;;;;4796847;29;20054;-93
2023/11/16 05:17:28;;;;;;;12.52;5.03;;;7.70;81.20;;;;;;4796866;29;20062;-93
2023/11/16 05:19:56;;;;;;;12.02;5.47;;;7.60;81.20;;;;;;4796813;29;20059;-93
2023/11/16 05:22:23;;;;;;;12.43;5.47;;;7.50;81.30;;;;;;4796792;29;20509;-93
2023/11/16 05:24:53;;;;;;;12.73;5.15;;;7.50;81.40;;;;;;4796431;29;20058;-94
2023/11/16 05:27:23;;;;;;;13.57;5.18;;;7.40;81.50;;;;;;4796656;29;20141;-93
2023/11/16 05:29:50;;;;;;;11.45;5.95;;;7.40;81.50;;;;;;4796526;29;20141;-93
2023/11/16 05:32:17;;;;;;;13.93;6.32;;;7.30;81.50;;;;;;4796474;29;20049;-93
2023/11/16 05:34:45;;;;;;;14.60;6.60;;;7.20;81.70;;;;;;4796476;29;20054;-94
2023/11/16 05:37:12;;;;;;;14.68;6.15;;;7.00;82.20;;;;;;4796083;29;20061;-93
2023/11/16 05:39:39;;;;;;;13.40;6.35;;;7.00;82.20;;;;;;4796147;29;20046;-93
2023/11/16 05:42:08;;;;;;;14.60;6.30;;;7.00;82.20;;;;;;4796286;29;20058;-93
2023/11/16 05:44:36;;;;;;;14.57;5.90;;;;;;;;;;4796133;29;20502;-92
2023/11/16 05:47:06;;;;;;;13.43;6.53;;;;;;;;;;4780364;30;20106;-92
2023/11/16 05:49:34;;;;;;;14.68;5.88;;;;;;;;;;4791008;29;20558;-92
2023/11/16 05:52:02;;;;;;;13.63;6.60;;;;;;;;;;4801739;29;20061;-92
2023/11/16 05:54:29;;;;;;;12.27;5.72;;;6.80;82.50;;;;;;4784171;29;20058;-92
2023/11/16 05:56:56;;;;;;;13.05;6.78;;;6.90;82.20;;;;;;4809223;29;20089;-92
2023/11/16 05:59:23;;;;;;;14.47;6.63;;;6.90;81.90;;;;;;4787947;30;20083;-91
2023/11/16 06:01:51;;;;;;;17.20;8.10;;;6.90;81.80;;;;;;4799077;29;20065;-93
2023/11/16 06:04:22;;;;;;;17.20;7.20;;;6.90;82.00;;;;;;4776949;29;20063;-91
2023/11/16 06:06:49;;;;;;;15.35;7.35;;;6.80;82.20;;;;;;4804759;29;20058;-92
2023/11/16 06:09:16;;;;;;;14.85;7.68;;;6.70;82.70;;;;;;4792598;29;20056;-92
2023/11/16 06:11:43;;;;;;;13.00;6.03;;;6.60;83.00;;;;;;4777682;29;20078;-92
2023/11/16 06:14:10;;;;;;;14.70;6.82;;;6.60;83.40;;;;;;4779519;30;20055;-91
2023/11/16 06:16:46;;;;;;;13.40;6.68;;;6.60;83.40;;;;;;4779668;29;20051;-91
2023/11/16 06:19:13;;;;;;;14.48;6.35;;;6.50;83.70;;;;;;4788208;29;20047;-91
2023/11/16 06:21:41;;;;;;;14.50;6.43;;;6.60;83.80;;;;;;4782190;30;20509;-91
2023/11/16 06:24:09;;;;;;;13.10;5.80;;;6.60;83.90;;;;;;4791433;29;20055;-90
2023/11/16 06:26:36;;;;;;;14.55;6.18;;;6.80;83.70;;;;;;4802027;29;20050;-92
2023/11/16 06:29:06;;;;;;;16.52;8.45;;;6.80;83.50;;;;;;4789385;29;20078;-91
2023/11/16 06:31:33;;;;;;;15.48;8.60;;;6.90;83.40;;;;;;4771527;30;20039;-92
2023/11/16 06:34:00;;;;;;;13.65;7.32;;;7.00;83.20;;;;;;4792317;29;20142;-91
2023/11/16 06:36:28;;;;;;;14.70;7.07;;;7.00;83.10;;;;;;4786401;29;20141;-91
2023/11/16 06:38:55;;;;;;;16.08;7.30;;;7.00;83.00;;;;;;4798483;29;20074;-92
2023/11/16 06:41:22;;;;;;;13.38;6.57;;;7.00;83.20;;;;;;4775617;29;20063;-91
2023/11/16 06:43:52;;;;;;;14.52;6.95;;;7.00;83.20;;;;;;4798062;29;20051;-91
2023/11/16 06:46:19;;;;;;;14.25;6.15;;;6.90;83.20;;;;;;4784566;29;20125;-91
2023/11/16 06:48:46;;;;;;;13.70;6.13;;;6.90;83.10;;;;;;4777820;29;20112;-92
2023/11/16 06:51:13;;;;;;;12.55;5.95;;;6.80;83.20;;;;;;4779153;30;20056;-92
2023/11/16 06:53:42;;;;;;;13.45;6.72;;;6.80;83.30;;;;;;4787915;30;20142;-91
2023/11/16 06:56:11;;;;;;;15.45;6.90;;;6.80;83.40;;;;;;4786293;29;20081;-91
2023/11/16 06:58:40;;;;;;;15.40;6.90;;;6.80;83.50;;;;;;4790420;29;20058;-92
2023/11/16 07:01:07;;;;;;;17.60;7.10;;;6.70;83.40;;;;;;4779766;30;20055;-91
2023/11/16 07:03:34;;;;;;;14.80;7.00;;;6.80;83.50;;;;;;4741481;29;1228691;-92
2023/11/16 07:06:02;;;;;;;17.02;7.07;;;6.80;83.50;;;;;;4770357;30;20048;-92
2023/11/16 07:08:29;;;;;;;15.48;7.30;;;6.90;83.50;;;;;;4793882;29;20047;-91
2023/11/16 07:10:56;;;;;;;17.75;7.88;;;6.90;83.40;;;;;;4770611;29;20050;-91
2023/11/16 07:13:23;;;;;;;17.88;8.57;;;7.00;83.30;;;;;;4788019;29;20046;-91
2023/11/16 07:15:51;;;;;;;15.30;7.70;;;7.00;83.10;;;;;;4797822;29;20073;-91
2023/11/16 07:18:19;;;;;;;19.60;9.52;;;7.10;82.90;;;;;;4800629;29;20050;-91
2023/11/16 07:20:51;;;;;;;19.73;8.65;;;7.00;82.60;;;;;;4804940;29;20714;-91
2023/11/16 07:23:20;;;;;;;20.50;10.27;;;7.10;82.90;;;;;;4792759;29;20055;-91
2023/11/16 07:25:49;;;;;;;20.02;11.02;;;7.00;82.90;;;;;;4778442;29;20065;-92
2023/11/16 07:28:16;;;;;;;22.03;11.03;;;7.00;83.00;;;;;;4795425;29;20074;-91
2023/11/16 07:30:44;;;;;;;19.70;11.48;;;7.00;83.00;;;;;;4780376;29;20051;-92
2023/11/16 07:33:14;;;;;;;24.58;11.88;;;6.90;83.50;;;;;;4801062;29;20051;-92
2023/11/16 07:35:43;;;;;;;21.27;11.95;;;6.90;83.90;;;;;;4796043;29;20087;-92
2023/11/16 07:38:10;;;;;;;19.88;11.40;;;7.00;83.80;;;;;;4796826;29;20058;-92
2023/11/16 07:40:37;;;;;;;22.87;11.60;;;7.10;84.00;;;;;;4796332;29;20062;-92
2023/11/16 07:43:05;;;;;;;21.02;10.73;;;7.10;83.60;;;;;;4812992;29;20421;-92
2023/11/16 07:45:32;;;;;;;19.92;10.13;;;7.20;83.50;;;;;;4797854;29;20054;-92
2023/11/16 07:48:04;;;;;;;20.02;9.60;;;7.20;83.80;;;;;;4798192;29;20046;-92
2023/11/16 07:50:31;;;;;;;20.85;10.30;;;7.30;83.70;;;;;;4787967;30;20592;-92
2023/11/16 07:53:01;;;;;;;20.37;9.43;;;7.40;83.50;;;;;;4805521;29;20398;-92
2023/11/16 07:55:31;;;;;;;20.13;10.25;;;7.50;83.10;;;;;;4794368;29;20517;-92
2023/11/16 07:57:58;;;;;;;18.95;10.43;;;7.50;83.10;;;;;;4797870;29;20057;-93
2023/11/16 08:00:34;;;;;;;19.85;10.57;;;7.60;83.10;;;;;;4812961;29;20086;-92
2023/11/16 08:05:50;;;;;;;18.07;9.63;;;7.80;82.30;;;;;;4801296;29;20439;-92
2023/11/16 08:08:20;;;;;;;20.20;9.57;;;7.80;82.40;;;;;;4812678;29;20046;-93
2023/11/16 08:10:49;;;;;;;17.58;8.95;;;;;;;;;;4797511;29;20146;-93
2023/11/16 08:13:19;;;;;;;15.50;8.10;;;7.90;83.10;;;;;;4786119;29;20106;-92
2023/11/16 08:15:52;;;;;;;17.70;8.93;;;7.90;82.80;;;;;;4778458;30;20059;-92
2023/11/16 08:18:21;;;;;;;16.97;8.53;;;8.00;82.90;;;;;;4773320;30;20051;-92
2023/11/16 08:20:48;;;;;;;22.30;9.00;;;8.00;83.10;;;;;;4761981;30;20062;-92
2023/11/16 08:23:17;;;;;;;20.48;9.85;;;8.10;82.90;;;;;;4810998;29;20058;-92
2023/11/16 08:25:47;;;;;;;20.58;9.23;;;8.10;82.60;;;;;;4792047;29;20055;-92
2023/11/16 08:28:14;;;;;;;20.35;9.80;;;8.20;82.60;;;;;;4812220;29;20054;-92
2023/11/16 08:30:45;;;;;;;23.17;10.53;;;8.40;82.40;;;;;;4797088;29;20494;-92
2023/11/16 08:33:14;;;;;;;21.52;11.00;;;8.50;82.30;;;;;;4796266;29;20394;-91
2023/11/16 08:35:42;;;;;;;18.80;9.57;;;8.50;81.90;;;;;;4805781;29;20130;-92
2023/11/16 08:38:14;;;;;;;18.85;9.48;;;8.50;81.40;;;;;;4789424;29;20497;-91
2023/11/16 08:40:43;;;;;;;20.58;10.15;;;8.50;81.40;;;;;;4769704;29;20053;-92
2023/11/16 08:43:13;;;;;;;20.40;10.43;;;8.60;81.70;;;;;;4788483;29;20057;-91
2023/11/16 08:45:41;;;;;;;21.63;10.48;;;8.70;81.70;;;;;;4789970;29;20056;-92
2023/11/16 08:48:10;;;;;;;22.73;10.13;;;8.80;82.00;;;;;;4782406;29;20135;-91
2023/11/16 08:50:42;;;;;;;24.05;11.68;;;8.90;81.60;;;;;;4794999;29;20055;-92
2023/11/16 08:53:12;;;;;;;19.20;10.40;;;8.90;81.10;;;;;;4804898;29;20055;-92
2023/11/16 08:55:40;;;;;;;23.83;9.57;;;9.00;80.90;;;;;;4778834;29;20138;-91
2023/11/16 08:58:08;;;;;;;15.32;5.88;;;9.20;80.70;;;;;;4783616;29;20057;-92
2023/11/16 09:00:37;;;;;;;11.20;5.15;;;9.20;80.10;;;;;;4801262;29;20054;-92
2023/11/16 09:03:08;;;;;;;10.70;4.85;;;9.10;79.70;;;;;;4795385;29;20157;-91
2023/11/16 09:05:37;;;;;;;14.02;4.97;;;9.20;78.90;;;;;;4791919;29;20043;-92
2023/11/16 09:08:04;;;;;;;11.97;4.30;;;9.30;78.90;;;;;;4785879;29;20054;-92
2023/11/16 09:10:31;;;;;;;8.48;3.42;;;9.40;79.80;;;;;;4776841;29;20056;-89
2023/11/16 09:13:00;;;;;;;7.60;3.35;;;9.50;79.70;;;;;;4786921;29;20107;-91
2023/11/16 09:15:28;;;;;;;8.45;3.05;;;9.40;77.30;;;;;;4796438;29;20121;-91
2023/11/16 09:18:00;;;;;;;5.07;1.90;;;9.40;76.40;;;;;;4787506;29;20444;-92
2023/11/16 09:20:28;;;;;;;7.20;2.10;;;9.40;75.20;;;;;;4794442;29;20498;-91
2023/11/16 09:22:57;;;;;;;6.40;1.92;;;9.40;74.70;;;;;;4775183;30;20062;-91
2023/11/16 09:25:29;;;;;;;7.05;1.80;;;;;;;;;;4796780;29;20047;-90
2023/11/16 09:27:58;;;;;;;7.53;1.27;;;;;;;;;;4786664;29;20046;-91
2023/11/16 09:30:27;;;;;;;5.75;1.75;;;;;;;;;;4786533;29;20059;-91
2023/11/16 09:32:55;;;;;;;6.30;2.40;;;;;;;;;;4775694;29;20576;-91
2023/11/16 09:35:23;;;;;;;5.95;1.73;;;;;;;;;;4781895;29;20054;-91
2023/11/16 09:37:52;;;;;;;7.30;2.50;;;;;;;;;;4807928;29;20126;-91
2023/11/16 09:40:21;;;;;;;7.50;2.30;;;;;;;;;;4800102;29;20137;-91
2023/11/16 09:42:56;;;;;;;5.40;2.05;;;;;;;;;;4784992;29;20074;-91
2023/11/16 09:45:28;;;;;;;6.33;2.30;;;;;;;;;;4784416;29;20375;-91
2023/11/16 09:48:10;;;;;;;8.50;2.50;;;;;;;;;;4786036;29;20046;-91
2023/11/16 09:50:44;;;;;;;8.68;3.20;;;;;;;;;;4791958;29;20046;-91
2023/11/16 09:53:34;;;;;;;7.10;2.10;;;;;;;;;;4783763;29;20512;-91
2023/11/16 09:56:04;;;;;;;7.85;2.00;;;;;;;;;;4798030;29;20532;-91
2023/11/16 09:58:36;;;;;;;7.73;2.43;;;;;;;;;;4799225;29;20088;-91
2023/11/16 10:01:10;;;;;;;8.05;2.30;;;;;;;;;;4810604;29;20057;-91
2023/11/16 10:03:40;;;;;;;5.50;2.03;;;;;;;;;;4783834;29;20059;-91
2023/11/16 10:06:10;;;;;;;5.70;1.90;;;;;;;;;;4778283;29;20051;-91
2023/11/16 10:08:40;;;;;;;6.40;1.98;;;;;;;;;;4790717;29;20047;-92
2023/11/16 10:11:09;;;;;;;6.10;1.37;;;;;;;;;;4797445;29;20405;-92
2023/11/16 10:13:37;;;;;;;5.90;1.40;;;;;;;;;;4808560;29;20050;-91
2023/11/16 10:16:11;;;;;;;6.63;1.50;;;;;;;;;;4788042;29;20473;-91
2023/11/16 10:18:39;;;;;;;6.88;1.35;;;;;;;;;;4768915;29;20576;-91
2023/11/16 10:21:08;;;;;;;6.22;1.60;;;;;;;;;;4778603;30;20070;-91
2023/11/16 10:23:36;;;;;;;6.20;1.30;;;;;;;;;;4792648;29;20054;-90
2023/11/16 10:26:05;;;;;;;4.63;0.95;;;;;;;;;;4784853;29;20057;-91
2023/11/16 10:28:34;;;;;;;4.82;1.25;;;10.20;69.60;;;;;;4779037;29;20059;-91
2023/11/16 10:31:05;;;;;;;3.72;1.10;;;10.20;70.00;;;;;;4792463;29;20057;-91
2023/11/16 10:33:34;;;;;;;5.00;1.17;;;10.10;70.20;;;;;;4808085;29;20085;-92
2023/11/16 10:36:02;;;;;;;7.07;1.37;;;10.20;70.20;;;;;;4803181;29;20112;-92
2023/11/16 10:38:32;;;;;;;12.65;3.60;;;10.10;70.20;;;;;;4779369;29;20582;-92
2023/11/16 10:41:00;;;;;;;19.63;5.68;;;10.20;70.50;;;;;;4807277;29;20050;-92
2023/11/16 10:43:29;;;;;;;24.67;8.93;;;10.30;71.30;;;;;;4795293;29;20158;-92
2023/11/16 10:46:05;;;;;;;9.98;2.90;;;10.40;70.90;;;;;;4809988;29;20050;-91
2023/11/16 10:48:32;;;;;;;47.10;22.03;;;10.50;71.10;;;;;;4795233;29;20046;-92
2023/11/16 10:51:01;;;;;;;10.75;4.43;;;10.70;70.90;;;;;;4795220;29;20056;-92
2023/11/16 10:53:37;;;;;;;12.68;6.15;;;10.80;70.40;;;;;;4795253;29;20161;-91
2023/11/16 10:56:09;;;;;;;5.68;1.80;;;10.90;70.70;;;;;;4795432;29;20144;-92
2023/11/16 10:58:42;;;;;;;7.05;2.47;;;11.00;69.50;;;;;;4795187;29;20061;-92
2023/11/16 11:01:14;;;;;;;9.67;3.93;;;11.00;70.00;;;;;;4795216;29;20058;-92
2023/11/16 11:03:48;;;;;;;9.15;2.92;;;11.00;69.20;;;;;;4795271;29;20068;-92
2023/11/16 11:06:22;;;;;;;6.40;1.85;;;11.00;69.70;;;;;;4795378;29;20069;-93
2023/11/16 11:08:53;;;;;;;10.90;6.03;;;11.00;68.80;;;;;;4795000;29;20047;-92
2023/11/16 11:11:28;;;;;;;18.80;12.52;;;10.80;68.40;;;;;;4795333;29;20526;-93
2023/11/16 11:14:05;;;;;;;4.30;1.20;;;10.80;69.50;;;;;;4794925;29;20082;-92
2023/11/16 11:16:32;;;;;;;13.88;5.40;;;10.70;68.90;;;;;;4795013;29;20057;-92
2023/11/16 11:19:03;;;;;;;14.57;6.80;;;10.60;68.80;;;;;;4795407;29;20501;-92
2023/11/16 11:21:31;;;;;;;7.63;2.65;;;10.60;69.00;;;;;;4809647;29;20090;-92
2023/11/16 11:24:00;;;;;;;10.32;4.53;;;10.60;68.60;;;;;;4794692;29;20058;-92
2023/11/16 11:26:43;;;;;;;8.20;3.00;;;10.60;68.30;;;;;;4794973;29;20047;-92
2023/11/16 11:29:12;;;;;;;8.23;3.40;;;10.60;68.60;;;;;;4794951;29;20145;-92
2023/11/16 11:32:03;;;;;;;8.48;3.72;;;10.70;68.90;;;;;;4795251;29;20594;-92
2023/11/16 11:34:36;;;;;;;11.43;4.07;;;10.60;68.50;;;;;;4795239;29;20050;-92
2023/11/16 11:37:07;;;;;;;12.15;5.38;;;10.50;68.60;;;;;;4784363;30;20108;-92
2023/11/16 11:39:40;;;;;;;9.00;5.20;;;10.50;68.50;;;;;;4787946;29;20130;-92
2023/11/16 11:42:09;;;;;;;7.35;3.63;;;10.40;69.20;;;;;;4794633;29;20055;-92
2023/11/16 11:44:36;;;;;;;8.13;4.93;;;10.50;68.80;;;;;;4794394;29;20080;-92
2023/11/16 11:47:04;;;;;;;5.65;1.70;;;10.50;68.70;;;;;;4794493;29;20050;-92
2023/11/16 11:49:33;;;;;;;6.10;1.20;;;10.60;69.10;;;;;;4794509;29;20064;-93
2023/11/16 11:52:05;;;;;;;7.03;1.63;;;10.80;69.10;;;;;;4794947;29;20043;-92
2023/11/16 11:54:36;;;;;;;8.40;2.17;;;11.00;68.40;;;;;;4794982;29;20582;-92
2023/11/16 11:57:05;;;;;;;9.98;1.95;;;11.10;68.00;;;;;;4795046;29;20514;-92
2023/11/16 11:59:35;;;;;;;6.57;1.23;;;11.20;66.90;;;;;;4794448;29;20054;-92
2023/11/16 12:02:10;;;;;;;17.10;6.88;;;11.30;66.10;;;;;;4794581;29;20050;-93
2023/11/16 12:04:39;;;;;;;31.70;13.93;;;11.30;65.00;;;;;;4755720;30;20048;-93
2023/11/16 12:07:09;;;;;;;14.80;5.03;;;11.30;63.50;;;;;;4756519;30;20048;-93
2023/11/16 12:09:44;;;;;;;20.20;7.90;;;11.40;64.40;;;;;;4770187;30;20507;-93
2023/11/16 12:12:11;;;;;;;6.88;1.90;;;11.50;64.50;;;;;;4772638;30;20056;-93
2023/11/16 12:14:48;;;;;;;5.38;1.10;;;11.50;64.10;;;;;;4773548;30;20130;-93
2023/11/16 12:17:17;;;;;;;9.77;3.50;;;11.50;64.50;;;;;;4773769;30;20058;-93
2023/11/16 12:19:49;;;;;;;5.65;1.98;;;11.50;64.20;;;;;;4758752;30;20411;-93
2023/11/16 12:22:19;;;;;;;5.95;2.22;;;11.40;63.50;;;;;;4773849;30;20044;-93
2023/11/16 12:24:49;;;;;;;4.13;0.95;;;11.40;63.70;;;;;;4773486;30;20059;-93
2023/11/16 12:27:17;;;;;;;5.32;1.63;;;11.30;63.30;;;;;;4773664;30;20059;-93
2023/11/16 12:29:58;;;;;;;6.70;3.80;;;11.30;64.40;;;;;;4773444;30;20075;-94
2023/11/16 12:32:26;;;;;;;5.88;1.60;;;11.30;64.20;;;;;;4773335;30;20058;-94
2023/11/16 12:34:54;;;;;;;8.75;3.03;;;11.20;64.20;;;;;;4773233;30;20110;-93
2023/11/16 12:37:21;;;;;;;9.27;4.93;;;11.20;63.80;;;;;;4758589;30;20090;-93
2023/11/16 12:39:50;;;;;;;7.43;2.63;;;11.20;64.40;;;;;;4773275;30;20519;-93
2023/11/16 12:42:22;;;;;;;5.40;2.50;;;11.20;64.90;;;;;;4773583;30;20539;-93
2023/11/16 12:44:52;;;;;;;4.20;1.10;;;11.10;63.80;;;;;;4773231;30;20530;-94
2023/11/16 12:47:19;;;;;;;5.68;2.17;;;11.10;64.90;;;;;;4773005;30;20076;-93
2023/11/16 12:49:51;;;;;;;6.10;2.30;;;11.10;64.90;;;;;;4773007;30;20055;-94
2023/11/16 12:52:23;;;;;;;7.53;2.95;;;11.00;64.80;;;;;;4773166;30;20115;-93
2023/11/16 12:54:51;;;;;;;8.50;4.07;;;11.00;65.40;;;;;;4758479;30;20416;-94
2023/11/16 12:57:19;;;;;;;11.07;7.05;;;11.10;65.90;;;;;;4758186;30;20423;-93
2023/11/16 12:59:47;;;;;;;6.10;2.47;;;11.00;64.50;;;;;;4773111;30;20537;-93
2023/11/16 13:02:14;;;;;;;6.65;2.83;;;11.00;63.80;;;;;;4772884;30;20052;-93
2023/11/16 13:04:41;;;;;;;6.45;2.03;;;11.00;64.90;;;;;;4775673;30;20055;-93
2023/11/16 13:07:08;;;;;;;5.50;2.00;;;11.10;67.20;;;;;;4790602;30;20525;-94